createdAt,value
2023-05-03T00:00:19.560Z,7.88
2023-05-03T00:03:38.440Z,7.83
2023-05-03T00:06:27.642Z,7.77
2023-05-03T00:09:30.636Z,7.70
2023-05-03T00:12:18.924Z,7.64
2023-05-03T00:18:46.737Z,7.49
2023-05-03T00:21:50.830Z,7.40
2023-05-03T00:24:28.838Z,7.34
2023-05-03T00:27:37.155Z,7.28
2023-05-03T00:33:31.448Z,7.13
2023-05-03T00:36:41.716Z,7.07
2023-05-03T00:39:19.392Z,7.02
2023-05-03T00:42:25.576Z,6.98
2023-05-03T00:45:01.166Z,6.93
2023-05-03T00:47:35.281Z,6.90
2023-05-03T00:50:09.258Z,6.89
2023-05-03T00:53:42.147Z,6.88
2023-05-03T01:36:28.702Z,6.75
2023-05-03T01:46:50.273Z,6.60
2023-05-03T01:50:05.312Z,6.57
2023-05-03T01:53:08.288Z,6.51
2023-05-03T01:56:00.195Z,6.45
2023-05-03T01:59:10.265Z,6.40
2023-05-03T02:02:42.848Z,6.36
2023-05-03T02:13:54.164Z,6.24
2023-05-03T02:14:14.103Z,6.29
2023-05-03T02:17:08.597Z,6.25
2023-05-03T02:28:14.824Z,6.29
2023-05-03T02:31:28.196Z,6.31
2023-05-03T02:34:38.453Z,6.32
2023-05-03T03:17:13.308Z,5.82
2023-05-03T03:32:08.444Z,5.81
2023-05-03T03:55:17.004Z,5.44
2023-05-03T05:04:31.654Z,5.51
2023-05-03T05:11:11.930Z,5.59
2023-05-03T05:14:20.646Z,5.61
2023-05-03T05:17:35.325Z,5.62
2023-05-03T05:20:44.008Z,5.66
2023-05-03T05:23:52.537Z,5.69
2023-05-03T05:27:03.812Z,5.72
2023-05-03T05:30:12.797Z,5.77
2023-05-03T05:33:21.415Z,5.78
2023-05-03T05:36:17.156Z,5.85
2023-05-03T05:39:20.039Z,5.95
2023-05-03T05:42:08.433Z,6.10
2023-05-03T05:45:05.751Z,6.42
2023-05-03T05:47:55.868Z,7.36
2023-05-03T05:50:42.657Z,8.95
2023-05-03T05:53:35.398Z,10.59
2023-05-03T05:56:17.830Z,12.00
2023-05-03T05:59:26.840Z,13.23
2023-05-03T06:02:27.112Z,14.45
2023-05-03T06:05:15.568Z,15.30
2023-05-03T06:08:14.513Z,15.70
2023-05-03T06:11:18.203Z,16.57
2023-05-03T06:14:36.756Z,17.43
2023-05-03T06:18:16.055Z,17.93
2023-05-03T06:28:49.687Z,18.84
2023-05-03T06:31:47.224Z,19.25
2023-05-03T06:43:01.306Z,20.18
2023-05-03T06:50:10.563Z,20.48
2023-05-03T06:53:14.422Z,20.88
2023-05-03T06:56:04.960Z,21.26
2023-05-03T06:59:13.509Z,21.24
2023-05-03T07:02:55.889Z,21.29
2023-05-03T07:05:36.910Z,21.41
2023-05-03T07:09:16.349Z,21.20
2023-05-03T07:12:12.286Z,21.09
2023-05-03T07:15:10.582Z,21.26
2023-05-03T07:18:19.517Z,21.27
2023-05-03T07:21:09.478Z,21.08
2023-05-03T07:24:32.739Z,20.84
2023-05-03T07:27:21.399Z,20.52
2023-05-03T07:30:28.985Z,20.39
2023-05-03T07:34:21.442Z,20.09
2023-05-03T07:41:54.576Z,19.39
2023-05-03T07:44:59.997Z,18.69
2023-05-03T07:48:25.752Z,17.80
2023-05-03T07:51:13.974Z,16.99
2023-05-03T07:54:12.859Z,16.29
2023-05-03T07:57:04.017Z,15.78
2023-05-03T07:59:35.530Z,15.42
2023-05-03T08:02:03.655Z,15.28
2023-05-03T08:05:13.941Z,15.17
2023-05-03T08:08:14.080Z,14.91
2023-05-03T08:11:25.865Z,14.65
2023-05-03T08:14:34.629Z,14.52
2023-05-03T08:17:43.543Z,14.45
2023-05-03T08:20:52.519Z,14.48
2023-05-03T08:24:07.675Z,14.47
2023-05-03T08:27:16.339Z,14.35
2023-05-03T08:30:28.424Z,14.46
2023-05-03T08:33:24.468Z,14.38
2023-05-03T08:36:27.457Z,14.38
2023-05-03T08:39:11.781Z,14.45
2023-05-03T08:42:01.340Z,14.41
2023-05-03T08:45:09.729Z,14.46
2023-05-03T08:48:21.600Z,14.57
2023-05-03T08:51:04.905Z,14.71
2023-05-03T08:54:07.014Z,14.81
2023-05-03T08:57:05.699Z,14.92
2023-05-03T09:00:05.421Z,14.84
2023-05-03T09:03:14.620Z,14.65
2023-05-03T09:06:25.625Z,14.66
2023-05-03T09:09:20.406Z,14.92
2023-05-03T09:12:33.856Z,15.07
2023-05-03T09:19:47.757Z,15.11
2023-05-03T09:22:19.223Z,14.91
2023-05-03T09:25:14.356Z,14.94
2023-05-03T09:32:30.434Z,15.10
2023-05-03T09:35:20.383Z,14.93
2023-05-03T09:38:00.774Z,14.89
2023-05-03T09:40:51.186Z,14.85
2023-05-03T09:43:36.200Z,15.11
2023-05-03T09:46:30.256Z,15.25
2023-05-03T09:49:38.753Z,15.30
2023-05-03T09:52:24.788Z,15.47
2023-05-03T09:55:16.485Z,15.36
2023-05-03T09:58:17.841Z,15.31
2023-05-03T10:01:26.343Z,15.26
2023-05-03T10:04:35.009Z,15.36
2023-05-03T10:07:13.518Z,15.38
2023-05-03T10:10:06.538Z,15.43
2023-05-03T10:12:55.980Z,15.56
2023-05-03T10:15:45.884Z,15.91
2023-05-03T10:18:23.402Z,16.16
2023-05-03T10:21:17.717Z,16.27
2023-05-03T10:24:29.145Z,16.19
2023-05-03T10:27:28.255Z,16.09
2023-05-03T10:30:17.221Z,15.91
2023-05-03T10:33:17.312Z,15.76
2023-05-03T10:41:50.339Z,16.08
2023-05-03T10:45:03.870Z,15.91
2023-05-03T10:47:51.733Z,16.04
2023-05-03T10:50:52.858Z,16.31
2023-05-03T10:54:02.398Z,16.38
2023-05-03T10:56:40.016Z,16.44
2023-05-03T10:59:17.748Z,16.57
2023-05-03T11:01:47.793Z,16.59
2023-05-03T11:04:58.612Z,16.70
2023-05-03T11:08:07.492Z,17.03
2023-05-03T11:11:17.016Z,17.04
2023-05-03T11:14:26.131Z,16.92
2023-05-03T11:17:35.598Z,17.17
2023-05-03T11:20:47.515Z,17.38
2023-05-03T11:23:57.712Z,17.53
2023-05-03T11:26:28.421Z,17.41
2023-05-03T11:29:22.397Z,17.22
2023-05-03T11:32:25.415Z,17.22
2023-05-03T11:34:54.016Z,17.03
2023-05-03T11:37:36.736Z,16.74
2023-05-03T11:40:28.632Z,16.55
2023-05-03T11:43:24.255Z,16.38
2023-05-03T11:46:33.234Z,16.38
2023-05-03T11:53:45.288Z,16.29
2023-05-03T11:56:38.060Z,16.13
2023-05-03T11:59:38.146Z,16.00
2023-05-03T12:02:26.567Z,15.96
2023-05-03T12:05:15.680Z,16.06
2023-05-03T12:07:53.483Z,16.23
2023-05-03T12:10:53.385Z,16.32
2023-05-03T12:14:10.575Z,16.20
2023-05-03T12:17:00.421Z,16.17
2023-05-03T12:20:19.056Z,16.24
2023-05-03T12:23:04.587Z,16.32
2023-05-03T12:26:14.473Z,16.38
2023-05-03T12:29:05.879Z,16.43
2023-05-03T12:32:04.916Z,16.45
2023-05-03T12:38:09.578Z,16.56
2023-05-03T12:44:23.347Z,16.67
2023-05-03T12:47:29.334Z,16.76
2023-05-03T12:57:30.662Z,16.68
2023-05-03T13:00:24.894Z,16.72
2023-05-03T13:05:42.061Z,16.64
2023-05-03T13:12:13.420Z,16.76
2023-05-03T13:15:52.071Z,16.75
2023-05-03T13:19:59.928Z,16.66
2023-05-03T13:26:56.010Z,16.66
2023-05-03T14:14:38.799Z,15.90
2023-05-03T14:18:21.423Z,15.80
2023-05-03T14:24:53.944Z,15.83
2023-05-03T14:27:51.861Z,15.79
2023-05-03T14:31:10.028Z,15.96
2023-05-03T14:34:19.004Z,16.04
2023-05-03T14:37:12.827Z,16.01
2023-05-03T14:39:47.561Z,15.92
2023-05-03T14:42:57.714Z,15.97
2023-05-03T14:49:19.599Z,16.03
2023-05-03T14:51:57.817Z,15.96
2023-05-03T14:54:47.368Z,16.02
2023-05-03T15:01:32.341Z,16.40
2023-05-03T15:11:32.936Z,16.76
2023-05-03T15:18:13.604Z,17.08
2023-05-03T15:20:59.388Z,17.34
2023-05-03T15:23:35.439Z,17.46
2023-05-03T15:29:38.954Z,17.56
2023-05-03T15:40:14.816Z,17.32
2023-05-03T15:41:08.045Z,17.54
2023-05-03T15:43:00.471Z,17.27
2023-05-03T15:45:33.030Z,17.23
2023-05-03T15:48:04.990Z,17.14
2023-05-03T15:50:37.972Z,17.07
2023-05-03T15:53:10.074Z,17.10
2023-05-03T16:58:42.795Z,15.99
2023-05-03T17:07:17.743Z,15.88
2023-05-03T17:30:32.357Z,15.46
2023-05-03T17:55:26.609Z,14.23
2023-05-03T18:21:15.310Z,13.41
2023-05-03T18:28:01.418Z,13.10
2023-05-03T18:57:46.326Z,12.20
2023-05-03T19:31:29.462Z,10.94
2023-05-03T19:46:20.984Z,10.41
2023-05-03T19:48:59.657Z,10.31
2023-05-03T19:52:03.515Z,10.24
2023-05-03T20:21:33.784Z,9.72
2023-05-03T21:46:29.507Z,8.33
2023-05-03T21:53:13.446Z,8.25
2023-05-03T21:56:19.809Z,8.22
2023-05-03T22:56:19.620Z,7.66
2023-05-03T22:59:12.626Z,7.61
2023-05-03T23:02:03.131Z,7.57
2023-05-03T23:05:29.186Z,7.53
2023-05-03T23:59:31.291Z,7.22
